Time;durP1;ratioP1;P1;durP2;ratioP2;P2;SDS_P1;SDS_P2;PMS_P1;PMS_P2;Temp;Humidity;BMP_temperature;BMP_pressure;BME280_temperature;BME280_humidity;BME280_pressure;Samples;Min_cycle;Max_cycle;Signal;HPM_P1;HPM_P2
2023/01/31 00:01:32;;;;;;;10.95;1.85;;;;;;;4.26;63.50;100898.72;5008410;28;20093;-56
2023/01/31 00:04:02;;;;;;;13.23;2.22;;;;;;;4.22;63.54;100879.72;5017932;28;20123;-57
2023/01/31 00:06:33;;;;;;;12.45;2.70;;;;;;;4.22;63.59;100890.16;5018558;28;20110;-51
2023/01/31 00:09:00;;;;;;;14.15;2.30;;;;;;;4.23;63.66;100891.84;5015277;28;20566;-56
2023/01/31 00:11:27;;;;;;;15.02;2.60;;;;;;;4.24;63.65;100883.13;5011744;28;20085;-54
2023/01/31 00:13:53;;;;;;;7.05;1.70;;;;;;;4.24;63.40;100908.31;5014174;28;20082;-55
2023/01/31 00:16:20;;;;;;;10.45;2.80;;;;;;;4.23;63.51;100899.66;5011893;28;20473;-51
2023/01/31 00:18:46;;;;;;;14.43;2.70;;;;;;;4.22;63.58;100895.34;5015581;28;20079;-57
2023/01/31 00:21:14;;;;;;;9.20;1.27;;;;;;;4.22;63.41;100916.19;5015194;28;20117;-52
2023/01/31 00:23:41;;;;;;;18.85;2.00;;;;;;;4.23;63.55;100909.25;5017681;28;20074;-54
2023/01/31 00:26:19;;;;;;;11.43;1.42;;;;;;;4.20;63.01;100906.72;5016269;28;20141;-51
2023/01/31 00:28:46;;;;;;;16.55;3.30;;;;;;;4.19;63.52;100911.06;5012491;28;20084;-59
2023/01/31 00:31:12;;;;;;;13.95;2.03;;;;;;;4.17;63.22;100912.84;5002785;28;20097;-51
2023/01/31 00:33:40;;;;;;;22.85;2.63;;;;;;;4.16;63.47;100921.56;5011896;28;20166;-57
2023/01/31 00:36:08;;;;;;;12.02;1.83;;;;;;;4.16;63.22;100900.72;5014080;28;20101;-51
2023/01/31 00:38:34;;;;;;;14.25;2.65;;;;;;;4.15;63.62;100914.66;5017689;28;20070;-51
2023/01/31 00:41:02;;;;;;;21.38;1.90;;;;;;;4.15;63.39;100900.78;5017748;28;20530;-50
2023/01/31 00:43:28;;;;;;;10.77;1.60;;;;;;;4.16;63.44;100921.56;5014257;28;20135;-52
2023/01/31 00:45:54;;;;;;;9.60;1.88;;;;;;;4.15;62.99;100924.22;5011603;28;20189;-53
2023/01/31 00:48:20;;;;;;;6.45;1.45;;;;;;;4.11;63.14;100941.69;4993403;28;20102;-52
2023/01/31 00:50:45;;;;;;;14.77;1.98;;;;;;;4.11;63.03;100939.09;5013675;28;20078;-51
2023/01/31 00:53:11;;;;;;;7.32;1.88;;;;;;;4.10;62.93;100932.16;5011928;28;20100;-56
2023/01/31 00:55:36;;;;;;;14.38;2.80;;;;;;;4.07;63.01;100930.50;5013821;28;20116;-52
2023/01/31 00:58:02;;;;;;;16.08;1.50;;;;;;;4.06;63.13;100939.22;5008566;28;20102;-51
2023/01/31 01:00:28;;;;;;;17.85;2.13;;;;;;;4.06;63.38;100964.38;5006332;28;20082;-53
2023/01/31 01:02:53;;;;;;;9.23;1.77;;;;;;;4.06;63.34;100959.19;5014479;28;20157;-55
2023/01/31 01:05:19;;;;;;;10.13;1.92;;;;;;;4.03;63.25;100967.06;4997258;28;20105;-49
2023/01/31 01:07:44;;;;;;;11.75;1.70;;;;;;;4.03;63.53;100962.72;5004172;28;20106;-49
2023/01/31 01:10:10;;;;;;;12.90;2.03;;;;;;;4.01;63.54;100966.28;5009857;28;20085;-55
2023/01/31 01:12:36;;;;;;;15.40;1.90;;;;;;;3.94;63.74;100969.03;5012904;28;20075;-52
2023/01/31 01:15:02;;;;;;;12.30;2.20;;;;;;;3.93;64.00;100964.72;5013838;28;20093;-52
2023/01/31 01:17:28;;;;;;;13.27;2.40;;;;;;;3.95;64.01;100965.53;5015507;28;20094;-50
2023/01/31 01:19:53;;;;;;;18.88;3.65;;;;;;;3.96;64.02;100962.03;5012584;28;20508;-56
2023/01/31 01:22:19;;;;;;;13.65;3.15;;;;;;;3.96;64.07;100961.19;5014501;28;20573;-48
2023/01/31 01:24:45;;;;;;;11.68;2.05;;;;;;;3.92;64.27;100972.59;5005483;28;20128;-52
2023/01/31 01:27:12;;;;;;;17.67;2.28;;;;;;;3.89;64.40;100950.06;5013227;28;20125;-51
2023/01/31 01:29:38;;;;;;;14.55;2.58;;;;;;;3.85;64.24;100958.88;5009481;28;20672;-50
2023/01/31 01:32:04;;;;;;;17.15;2.50;;;;;;;3.84;64.26;100964.09;5017952;28;20093;-50
2023/01/31 01:34:30;;;;;;;8.35;1.77;;;;;;;3.82;64.46;100974.56;5009883;28;20110;-53
2023/01/31 01:36:56;;;;;;;14.82;2.03;;;;;;;3.83;64.33;100965.88;4999483;28;20153;-49
2023/01/31 01:39:22;;;;;;;10.32;2.13;;;;;;;3.85;64.35;100979.69;5006678;28;20760;-52
2023/01/31 01:41:47;;;;;;;20.05;2.80;;;;;;;3.84;64.47;100975.38;5005628;28;20481;-51
2023/01/31 01:44:46;;;;;;;15.45;2.38;;;;;;;3.78;64.52;100972.94;5011463;28;20079;-55
2023/01/31 01:47:39;;;;;;;11.23;2.30;;;;;;;3.73;64.85;100980.00;4995689;28;20209;-53
2023/01/31 01:50:16;;;;;;;11.23;1.90;;;;;;;3.64;65.19;100994.97;5003801;28;20209;-58
2023/01/31 01:52:47;;;;;;;15.40;1.90;;;;;;;3.58;65.13;100989.91;5015484;28;20078;-50
2023/01/31 01:55:29;;;;;;;23.88;3.85;;;;;;;3.58;65.35;100992.50;5018879;28;20120;-51
2023/01/31 01:58:02;;;;;;;10.75;1.60;;;;;;;3.63;65.40;100995.84;5009538;28;20098;-57
2023/01/31 02:00:30;;;;;;;8.80;2.15;;;;;;;3.68;65.22;101002.69;5019125;28;20572;-51
2023/01/31 02:02:58;;;;;;;12.50;2.45;;;;;;;3.69;65.18;101007.84;5003189;28;20109;-53
2023/01/31 02:05:30;;;;;;;9.32;1.50;;;;;;;3.71;65.24;101002.59;5012033;28;20093;-53
2023/01/31 02:07:56;;;;;;;13.10;2.08;;;;;;;3.74;65.33;101012.94;5008795;28;20679;-50
2023/01/31 02:10:34;;;;;;;6.47;1.38;;;;;;;3.75;65.17;101018.13;5012257;28;20086;-52
2023/01/31 02:13:01;;;;;;;8.52;2.78;;;;;;;3.76;65.12;101017.22;5005519;28;20089;-51
2023/01/31 02:15:26;;;;;;;9.25;1.35;;;;;;;3.78;65.33;101019.78;5007428;28;20078;-51
2023/01/31 02:17:52;;;;;;;11.57;2.85;;;;;;;3.78;65.43;101025.00;5002338;28;20098;-56
2023/01/31 02:20:22;;;;;;;6.97;1.65;;;;;;;3.76;65.85;101026.78;5002241;28;20113;-51
2023/01/31 02:23:23;;;;;;;6.75;1.50;;;;;;;3.73;65.46;101037.25;5009495;28;20066;-51
2023/01/31 02:26:25;;;;;;;10.82;2.28;;;;;;;3.69;65.61;101041.69;5008085;28;20672;-50
2023/01/31 02:28:57;;;;;;;;;;;;;;;3.64;65.71;101044.41;5002387;28;20084;-55
2023/01/31 02:31:48;;;;;;;12.98;3.53;;;;;;;3.64;65.77;101049.63;5005037;28;19961;-55
2023/01/31 02:34:18;;;;;;;15.68;2.60;;;;;;;3.65;65.95;101061.75;5001968;28;20083;-52
2023/01/31 02:36:52;;;;;;;11.95;2.50;;;;;;;3.64;65.96;101069.56;5001432;28;20105;-52
2023/01/31 02:39:38;;;;;;;13.80;1.88;;;;;;;3.64;66.00;101075.63;5010020;28;20444;-54
2023/01/31 02:42:17;;;;;;;13.02;2.08;;;;;;;3.62;66.29;101080.03;5012931;28;20132;-54
2023/01/31 02:44:58;;;;;;;13.20;1.80;;;;;;;3.63;65.94;101076.53;4998756;28;20073;-51
2023/01/31 02:47:41;;;;;;;19.73;4.57;;;;;;;3.61;66.00;101080.91;4987677;28;20106;-54
2023/01/31 02:50:22;;;;;;;8.77;1.48;;;;;;;3.60;66.15;101081.78;4996344;28;20074;-52
2023/01/31 02:52:50;;;;;;;11.77;2.03;;;;;;;3.55;66.27;101078.47;5006255;28;20078;-51
2023/01/31 02:58:02;;;;;;;15.82;2.17;;;;;;;3.32;66.81;101074.63;4998813;28;20176;-54
2023/01/31 03:00:32;;;;;;;14.20;1.63;;;;;;;3.18;67.12;101081.88;5004831;28;20090;-52
2023/01/31 03:02:58;;;;;;;13.10;3.38;;;;;;;3.07;67.32;101083.84;5008007;28;20079;-53
2023/01/31 03:05:23;;;;;;;8.25;2.28;;;;;;;2.98;67.48;101083.13;5003956;28;20090;-54
2023/01/31 03:07:56;;;;;;;13.40;1.90;;;;;;;2.87;67.67;101087.72;5005445;28;20098;-56
2023/01/31 03:10:33;;;;;;;14.05;1.83;;;;;;;2.77;68.03;101097.41;4998844;28;20444;-52
2023/01/31 03:13:20;;;;;;;8.00;2.05;;;;;;;2.69;68.30;101088.94;5009833;28;20512;-53
2023/01/31 03:18:46;;;;;;;14.25;3.35;;;;;;;2.57;68.46;101100.41;5008217;28;20132;-53
2023/01/31 03:21:38;;;;;;;11.30;1.67;;;;;;;2.53;69.01;101103.94;5006999;28;20204;-53
2023/01/31 03:24:06;;;;;;;10.07;1.75;;;;;;;2.50;68.97;101111.78;5012505;28;20441;-52
2023/01/31 03:26:33;;;;;;;16.15;2.08;;;;;;;2.47;68.66;101104.06;5014948;28;20104;-56
2023/01/31 03:29:01;;;;;;;12.75;2.05;;;;;;;2.42;69.10;101102.41;5003596;28;20093;-55
2023/01/31 03:31:51;;;;;;;11.43;1.52;;;;;;;2.38;69.64;101116.31;5012312;28;20103;-52
2023/01/31 03:34:18;;;;;;;11.55;2.30;;;;;;;2.34;69.25;101104.28;5005384;28;20075;-51
2023/01/31 03:37:06;;;;;;;10.85;1.70;;;;;;;2.29;69.98;101121.69;5009014;28;20104;-53
2023/01/31 03:39:36;;;;;;;10.50;1.80;;;;;;;2.26;69.91;101113.94;5009336;28;20070;-50
2023/01/31 03:42:01;;;;;;;8.90;2.08;;;;;;;2.22;70.28;101110.56;5012283;28;20098;-51
2023/01/31 03:44:50;;;;;;;10.32;1.65;;;;;;;2.22;70.08;101127.84;5003005;28;20204;-54
2023/01/31 03:47:22;;;;;;;6.28;1.77;;;;;;;2.20;70.51;101132.22;5007618;28;20142;-54
2023/01/31 03:49:50;;;;;;;13.32;1.75;;;;;;;2.17;70.57;101122.75;4989118;28;20419;-51
2023/01/31 03:52:22;;;;;;;9.60;3.03;;;;;;;2.18;70.58;101134.00;5010506;28;20090;-53
2023/01/31 03:54:55;;;;;;;14.93;2.00;;;;;;;2.17;70.87;101127.94;5006853;28;20165;-53
2023/01/31 03:57:30;;;;;;;22.33;2.28;;;;;;;2.18;70.79;101121.84;5009861;28;20098;-53
2023/01/31 03:59:59;;;;;;;7.40;1.92;;;;;;;2.17;70.86;101133.13;5079240;22;20112;-58
2023/01/31 04:02:31;;;;;;;9.88;1.75;;;;;;;2.18;70.92;101140.03;5082091;28;20073;-54
2023/01/31 04:05:10;;;;;;;10.27;2.05;;;;;;;2.21;70.94;101141.72;5087662;28;20088;-56
2023/01/31 04:07:36;;;;;;;13.75;2.13;;;;;;;2.26;70.83;101147.69;5087535;28;20080;-55
2023/01/31 04:10:06;;;;;;;22.55;2.45;;;;;;;2.28;70.87;101162.38;5089152;28;20093;-54
2023/01/31 04:12:36;;;;;;;17.35;3.17;;;;;;;2.33;70.81;101143.25;5083434;28;20151;-54
2023/01/31 04:15:03;;;;;;;8.52;1.85;;;;;;;2.34;70.43;101135.47;5070014;28;20060;-56
2023/01/31 04:17:29;;;;;;;12.30;1.75;;;;;;;2.38;70.65;101146.66;5088624;28;20083;-56
2023/01/31 04:19:54;;;;;;;6.80;1.63;;;;;;;2.43;70.56;101155.19;5090898;28;20108;-54
2023/01/31 04:22:20;;;;;;;9.35;1.85;;;;;;;2.44;70.66;101147.41;5084276;28;20077;-55
2023/01/31 04:24:45;;;;;;;14.13;2.35;;;;;;;2.49;70.59;101146.47;5087046;28;20095;-54
2023/01/31 04:27:10;;;;;;;12.73;1.70;;;;;;;2.49;70.51;101160.28;5073018;28;20141;-56
2023/01/31 04:29:36;;;;;;;17.25;1.65;;;;;;;2.48;70.58;101162.94;5088076;28;20104;-58
2023/01/31 04:32:01;;;;;;;14.60;1.67;;;;;;;2.47;70.34;101158.63;5087354;28;20073;-55
2023/01/31 04:34:27;;;;;;;15.20;2.38;;;;;;;2.50;70.53;101166.34;5087215;28;20133;-57
2023/01/31 04:36:52;;;;;;;11.57;2.75;;;;;;;2.49;70.77;101178.47;5087301;28;20073;-52
2023/01/31 04:39:18;;;;;;;10.98;1.83;;;;;;;2.47;70.75;101164.66;5086286;28;20088;-57
2023/01/31 04:41:43;;;;;;;13.93;2.45;;;;;;;2.42;70.68;101161.31;5086358;28;20153;-53
2023/01/31 04:44:09;;;;;;;12.55;1.70;;;;;;;2.42;70.84;101169.94;5085681;28;20073;-55
2023/01/31 04:46:34;;;;;;;9.23;1.85;;;;;;;2.44;70.86;101181.16;5088730;28;20172;-56
2023/01/31 04:49:00;;;;;;;11.95;1.42;;;;;;;2.44;70.88;101182.88;5087150;28;20115;-54
2023/01/31 04:51:25;;;;;;;15.05;1.90;;;;;;;2.49;70.57;101181.06;5084003;28;20076;-58
2023/01/31 04:53:51;;;;;;;8.60;2.42;;;;;;;2.53;70.60;101181.88;5085854;28;20080;-51
2023/01/31 04:56:16;;;;;;;8.55;2.05;;;;;;;2.53;70.77;101193.16;5088509;28;20080;-49
2023/01/31 04:58:42;;;;;;;15.77;1.65;;;;;;;2.54;70.79;101191.38;5087219;28;20118;-52
2023/01/31 05:01:07;;;;;;;13.25;4.25;;;;;;;2.52;70.81;101190.56;5083434;28;20089;-50
2023/01/31 05:03:33;;;;;;;10.52;1.95;;;;;;;2.48;70.62;101188.91;5064551;28;20088;-51
2023/01/31 05:05:59;;;;;;;11.70;1.55;;;;;;;2.45;70.96;101189.78;5088849;28;20179;-55
2023/01/31 05:08:24;;;;;;;12.80;2.05;;;;;;;2.43;71.00;101195.03;5086403;28;20150;-55
2023/01/31 05:10:56;;;;;;;11.65;1.83;;;;;;;2.37;71.13;101189.94;5087085;28;20165;-54
2023/01/31 05:13:24;;;;;;;16.42;2.05;;;;;;;2.34;71.45;101195.19;5083578;28;20076;-55
2023/01/31 05:15:49;;;;;;;18.52;1.73;;;;;;;2.29;71.28;101197.84;5086969;28;20077;-56
2023/01/31 05:18:15;;;;;;;6.70;1.33;;;;;;;2.25;71.47;101201.38;5085224;28;20467;-53
2023/01/31 05:20:41;;;;;;;4.28;1.00;;;;;;;2.22;71.43;101197.97;5085844;28;20080;-53
2023/01/31 05:23:07;;;;;;;15.93;2.55;;;;;;;2.22;71.57;101204.03;5088127;28;20084;-53
2023/01/31 05:25:34;;;;;;;11.98;1.60;;;;;;;2.20;71.64;101202.31;5089802;28;20107;-58
2023/01/31 05:28:00;;;;;;;6.93;1.40;;;;;;;2.20;71.69;101210.09;5086703;28;20083;-50
2023/01/31 05:30:25;;;;;;;9.68;1.55;;;;;;;2.18;71.63;101212.75;5090029;28;20076;-53
2023/01/31 05:32:51;;;;;;;15.10;2.22;;;;;;;2.17;71.83;101215.38;5084891;28;20086;-54
2023/01/31 05:35:17;;;;;;;15.60;2.33;;;;;;;2.13;71.71;101231.00;5090546;28;20159;-55
2023/01/31 05:37:43;;;;;;;15.25;1.95;;;;;;;2.13;71.96;101228.38;5085433;28;20103;-50
2023/01/31 05:40:14;;;;;;;14.98;1.83;;;;;;;2.11;71.91;101221.53;5089727;28;20099;-54
2023/01/31 05:42:40;;;;;;;7.80;1.33;;;;;;;2.10;71.82;101250.94;5085806;28;20076;-50
2023/01/31 05:45:06;;;;;;;13.15;1.58;;;;;;;2.13;72.09;101230.13;5089521;28;20530;-53
2023/01/31 05:47:32;;;;;;;12.00;2.00;;;;;;;2.14;71.74;101237.03;5085782;28;20080;-49
2023/01/31 05:49:57;;;;;;;8.32;2.28;;;;;;;2.13;71.78;101246.56;5085880;28;20100;-50
2023/01/31 05:52:23;;;;;;;13.63;1.70;;;;;;;2.13;71.77;101235.31;5083464;28;20091;-57
2023/01/31 05:54:48;;;;;;;13.45;1.42;;;;;;;2.14;71.85;101252.59;5087089;28;20547;-52
2023/01/31 05:57:14;;;;;;;9.23;1.65;;;;;;;2.17;71.98;101252.56;5087998;28;20105;-51
2023/01/31 05:59:40;;;;;;;5.32;1.00;;;;;;;2.16;71.71;101256.03;5084568;28;20093;-53
2023/01/31 06:02:05;;;;;;;10.73;2.05;;;;;;;2.19;71.79;101253.41;5086576;28;20080;-55
2023/01/31 06:04:31;;;;;;;8.88;1.75;;;;;;;2.25;71.66;101252.44;5081459;28;20092;-52
2023/01/31 06:06:57;;;;;;;9.07;2.13;;;;;;;2.28;71.80;101242.03;5087908;28;20107;-51
2023/01/31 06:09:22;;;;;;;7.53;1.17;;;;;;;2.33;71.47;101239.34;5079964;28;20105;-53
2023/01/31 06:11:48;;;;;;;16.77;2.63;;;;;;;2.36;71.37;101253.13;5085270;28;20104;-54
2023/01/31 06:14:13;;;;;;;11.23;1.63;;;;;;;2.35;71.54;101256.63;5080061;28;20096;-54
2023/01/31 06:16:38;;;;;;;10.85;1.55;;;;;;;2.32;71.23;101264.47;5085320;28;20076;-53
2023/01/31 06:19:04;;;;;;;14.57;2.35;;;;;;;2.32;71.45;101264.47;5079940;28;20097;-54
2023/01/31 06:21:29;;;;;;;14.93;1.73;;;;;;;2.38;71.33;101266.97;5086354;28;20094;-56
2023/01/31 06:23:55;;;;;;;7.70;1.55;;;;;;;2.46;71.26;101266.00;5093815;28;20167;-55
2023/01/31 06:26:20;;;;;;;5.57;1.10;;;;;;;2.51;70.94;101265.03;5087307;28;20081;-58
2023/01/31 06:28:46;;;;;;;20.77;2.17;;;;;;;2.56;71.22;101272.75;5081521;28;20096;-54
2023/01/31 06:31:12;;;;;;;11.95;1.42;;;;;;;2.58;70.89;101261.44;5073974;28;20095;-56
2023/01/31 06:33:38;;;;;;;12.70;1.90;;;;;;;2.60;71.05;101266.66;5079275;28;20087;-56
2023/01/31 06:36:04;;;;;;;4.68;1.75;;;;;;;2.60;71.03;101261.44;5086392;28;20118;-52
2023/01/31 06:38:29;;;;;;;14.13;2.03;;;;;;;2.56;70.95;101278.84;5083079;28;20547;-53
2023/01/31 06:40:55;;;;;;;14.45;1.73;;;;;;;2.54;71.17;101274.53;5089320;28;20068;-51
2023/01/31 06:43:21;;;;;;;13.43;1.73;;;;;;;2.52;71.12;101271.09;5088400;28;20141;-54
2023/01/31 06:45:48;;;;;;;8.57;1.48;;;;;;;2.44;71.38;101279.88;5093896;28;20092;-50
2023/01/31 06:48:14;;;;;;;12.80;1.75;;;;;;;2.43;71.56;101280.75;5089680;28;20489;-52
2023/01/31 06:50:39;;;;;;;9.43;1.92;;;;;;;2.42;71.71;101278.19;5087885;28;20195;-52
2023/01/31 06:53:05;;;;;;;12.85;3.08;;;;;;;2.39;71.65;101279.06;5087228;28;20507;-56
2023/01/31 06:55:30;;;;;;;12.38;1.45;;;;;;;2.39;71.94;101275.63;5094598;28;20091;-54
2023/01/31 06:57:56;;;;;;;6.15;1.45;;;;;;;2.35;72.07;101287.78;5082987;28;20084;-54
2023/01/31 07:00:24;;;;;;;11.63;1.30;;;;;;;2.35;71.99;101276.56;5066365;28;20095;-57
2023/01/31 07:02:51;;;;;;;7.50;1.65;;;;;;;2.35;72.08;101271.34;5087390;28;20076;-55
2023/01/31 07:05:19;;;;;;;13.23;1.85;;;;;;;2.33;72.25;101278.31;5090359;28;20148;-57
2023/01/31 07:07:46;;;;;;;13.75;1.73;;;;;;;2.32;72.08;101286.97;5081635;28;20069;-54
2023/01/31 07:10:12;;;;;;;7.55;1.25;;;;;;;2.31;72.30;101301.72;5087959;28;20077;-54
2023/01/31 07:12:38;;;;;;;10.40;1.40;;;;;;;2.34;72.48;101291.28;5070704;28;20064;-56
2023/01/31 07:15:04;;;;;;;10.60;2.13;;;;;;;2.38;72.38;101286.91;5087314;28;20079;-53
2023/01/31 07:17:33;;;;;;;7.65;2.55;;;;;;;2.44;72.30;101300.66;5089453;28;20099;-54
2023/01/31 07:19:58;;;;;;;17.67;1.55;;;;;;;2.53;72.02;101299.66;5067549;28;20555;-55
2023/01/31 07:22:24;;;;;;;13.60;2.30;;;;;;;2.59;71.86;101290.91;5081743;28;20138;-55
2023/01/31 07:24:53;;;;;;;14.77;2.33;;;;;;;2.63;71.83;101302.97;5076362;28;20091;-56
2023/01/31 07:27:18;;;;;;;14.32;1.77;;;;;;;2.67;71.86;101293.38;5073624;28;20093;-55
2023/01/31 07:29:44;;;;;;;13.93;2.30;;;;;;;2.68;71.91;101295.94;5061137;28;20108;-55
2023/01/31 07:32:10;;;;;;;10.38;2.70;;;;;;;2.68;71.99;101295.94;5073802;28;21271;-56
2023/01/31 07:34:36;;;;;;;12.35;2.20;;;;;;;2.71;71.88;101293.31;5087419;28;20068;-55
2023/01/31 07:37:01;;;;;;;12.90;1.85;;;;;;;2.74;72.11;101290.66;5080025;28;20126;-57
2023/01/31 07:39:28;;;;;;;8.90;1.40;;;;;;;2.78;71.97;101293.22;5089019;28;20100;-54
2023/01/31 07:41:54;;;;;;;16.17;1.73;;;;;;;2.83;71.99;101288.78;5087690;28;20163;-56
2023/01/31 07:44:19;;;;;;;12.77;2.22;;;;;;;2.88;72.07;101289.56;5087792;28;20147;-56
2023/01/31 07:46:45;;;;;;;10.00;1.70;;;;;;;2.95;72.15;101278.16;5082263;28;20096;-54
2023/01/31 07:49:11;;;;;;;10.73;1.80;;;;;;;3.02;71.95;101278.94;5067753;28;20462;-56
2023/01/31 07:51:37;;;;;;;9.45;1.50;;;;;;;3.09;72.05;101284.91;5061838;28;20721;-56
2023/01/31 07:54:04;;;;;;;9.40;1.40;;;;;;;3.16;72.00;101286.50;5082463;28;20072;-55
2023/01/31 07:56:30;;;;;;;7.53;1.33;;;;;;;3.20;72.02;101299.41;5096011;28;20079;-56
2023/01/31 07:58:55;;;;;;;14.65;2.10;;;;;;;3.23;72.10;101285.50;5064321;28;20100;-52
2023/01/31 08:04:09;;;;;;;16.95;2.05;;;;;;;3.43;71.61;101289.47;5081873;28;20229;-56
2023/01/31 08:06:36;;;;;;;7.68;1.48;;;;;;;3.52;71.52;101286.69;5063118;28;20100;-56
2023/01/31 08:09:02;;;;;;;11.18;1.50;;;;;;;3.58;71.31;101285.72;5066471;28;20092;-59
2023/01/31 08:11:27;;;;;;;10.57;1.92;;;;;;;3.63;71.37;101296.91;5083693;28;20546;-55
2023/01/31 08:13:53;;;;;;;14.75;2.80;;;;;;;3.65;71.29;101301.19;5083720;28;20134;-55
2023/01/31 08:16:19;;;;;;;14.13;2.35;;;;;;;3.71;71.30;101291.50;5067262;28;20149;-58
2023/01/31 08:18:48;;;;;;;17.83;2.47;;;;;;;3.79;71.08;101297.44;5084347;28;20571;-56
2023/01/31 08:21:14;;;;;;;24.08;2.85;;;;;;;3.84;71.17;101294.72;5084423;28;20088;-55
2023/01/31 08:23:40;;;;;;;13.25;2.15;;;;;;;3.87;71.25;101298.13;5085484;28;20133;-56
2023/01/31 08:26:09;;;;;;;18.08;2.78;;;;;;;3.91;71.08;101294.56;5083588;28;20104;-56
2023/01/31 08:28:36;;;;;;;5.25;1.38;;;;;;;3.95;70.99;101292.75;5077635;28;20162;-53
2023/01/31 08:31:02;;;;;;;8.05;1.63;;;;;;;4.01;71.11;101299.59;5076995;28;20076;-56
2023/01/31 08:33:27;;;;;;;21.50;2.78;;;;;;;4.09;70.96;101300.28;5082968;28;20080;-55
2023/01/31 08:35:53;;;;;;;11.18;1.80;;;;;;;4.15;70.75;101292.34;5087884;28;20069;-54
2023/01/31 08:38:18;;;;;;;9.73;2.17;;;;;;;4.25;70.53;101296.44;5078332;28;20107;-51
2023/01/31 08:40:44;;;;;;;13.65;1.98;;;;;;;4.31;70.67;101294.59;5083573;28;20119;-50
2023/01/31 08:43:09;;;;;;;13.23;1.70;;;;;;;4.38;70.81;101290.94;5083350;28;20096;-54
2023/01/31 08:45:35;;;;;;;10.27;1.98;;;;;;;4.46;70.30;101273.41;5077077;28;20138;-56
2023/01/31 08:48:01;;;;;;;7.80;1.50;;;;;;;4.55;70.28;101283.59;5072036;28;20077;-58
2023/01/31 08:50:28;;;;;;;18.92;2.60;;;;;;;4.60;70.38;101280.03;5078889;28;20080;-52
2023/01/31 08:53:00;;;;;;;8.55;1.73;;;;;;;4.62;69.85;101284.31;5078823;28;20072;-54
2023/01/31 08:55:27;;;;;;;9.48;1.63;;;;;;;4.62;70.16;101283.44;5080213;28;20122;-52
2023/01/31 08:57:53;;;;;;;17.08;1.92;;;;;;;4.64;70.12;101287.75;5087453;28;20104;-56
2023/01/31 09:00:19;;;;;;;17.40;2.08;;;;;;;4.62;69.98;101284.31;5087520;28;20107;-58
2023/01/31 09:02:51;;;;;;;8.10;2.28;;;;;;;4.61;70.29;101286.97;5087402;28;20545;-51
2023/01/31 09:05:16;;;;;;;4.00;1.58;;;;;;;4.60;70.24;101280.03;5083475;28;20081;-50
2023/01/31 09:07:41;;;;;;;11.15;2.40;;;;;;;4.61;70.45;101277.38;5076916;28;20091;-51
2023/01/31 09:10:07;;;;;;;9.52;1.65;;;;;;;4.61;70.52;101272.16;5070779;28;20092;-50
2023/01/31 09:12:33;;;;;;;14.15;2.78;;;;;;;4.65;70.81;101270.34;5072435;28;20076;-52
2023/01/31 09:14:59;;;;;;;9.48;1.58;;;;;;;4.67;70.76;101265.94;5066930;28;21434;-58
2023/01/31 09:17:24;;;;;;;8.85;2.53;;;;;;;4.75;70.33;101269.22;5081202;28;20523;-54
2023/01/31 09:19:50;;;;;;;6.63;1.77;;;;;;;4.84;70.27;101258.56;5084170;28;20092;-55
2023/01/31 09:22:15;;;;;;;9.93;1.50;;;;;;;4.86;70.60;101256.78;5087953;28;20194;-51
2023/01/31 09:24:40;;;;;;;21.02;2.15;;;;;;;4.96;70.15;101256.53;5079714;28;20577;-53
2023/01/31 09:27:06;;;;;;;11.50;1.60;;;;;;;5.00;69.91;101263.38;5087953;28;20088;-54
2023/01/31 09:29:31;;;;;;;9.18;2.05;;;;;;;5.00;70.21;101248.56;5092343;28;20095;-50
2023/01/31 09:31:57;;;;;;;20.05;1.90;;;;;;;5.04;70.16;101250.22;5091104;28;20101;-57
2023/01/31 09:34:24;;;;;;;12.10;2.35;;;;;;;5.07;70.54;101245.81;5089516;28;20079;-57
2023/01/31 09:36:49;;;;;;;6.78;1.83;;;;;;;5.07;70.42;101246.66;5084806;28;20104;-54
2023/01/31 09:39:15;;;;;;;6.82;1.85;;;;;;;5.11;70.99;101252.66;5076463;28;20139;-52
2023/01/31 09:41:50;;;;;;;9.55;1.08;;;;;;;5.14;71.10;101240.41;5086814;28;20081;-55
2023/01/31 09:44:24;;;;;;;12.82;1.83;;;;;;;5.10;70.74;101249.19;5080817;28;20072;-55
2023/01/31 09:46:58;;;;;;;10.20;1.85;;;;;;;5.02;71.25;101243.34;5082731;28;20138;-54
2023/01/31 09:49:31;;;;;;;13.75;1.85;;;;;;;4.95;71.65;101233.94;5083251;28;20184;-57
2023/01/31 09:52:03;;;;;;;6.55;1.65;;;;;;;4.91;71.88;101237.56;5078585;28;20076;-50
2023/01/31 09:54:46;;;;;;;11.93;1.52;;;;;;;4.87;72.14;101236.75;5086788;28;20068;-54
2023/01/31 09:57:25;;;;;;;4.38;0.77;;;;;;;4.82;72.59;101234.28;5092814;28;20084;-56
2023/01/31 10:00:09;;;;;;;13.52;2.25;;;;;;;4.83;72.52;101229.94;5082039;28;20486;-53
2023/01/31 10:02:40;;;;;;;22.40;2.58;;;;;;;4.76;72.33;101224.00;5072274;28;20076;-57
2023/01/31 10:05:28;;;;;;;8.07;2.40;;;;;;;4.75;72.91;101221.44;5085829;28;20075;-52
2023/01/31 10:08:29;;;;;;;6.25;2.22;;;;;;;4.75;72.86;101222.31;5090866;28;20073;-58
2023/01/31 10:10:59;;;;;;;9.07;1.92;;;;;;;4.77;72.87;101215.28;5051217;28;20100;-54
2023/01/31 10:13:33;;;;;;;17.65;2.50;;;;;;;4.79;72.97;101207.44;5092657;28;20104;-51
2023/01/31 10:16:32;;;;;;;14.20;2.65;;;;;;;4.75;73.32;101211.00;5080295;28;20076;-53
2023/01/31 10:19:13;;;;;;;8.93;2.17;;;;;;;4.77;73.19;101199.63;5087445;28;20112;-53
2023/01/31 10:21:44;;;;;;;16.58;2.75;;;;;;;4.82;73.09;101207.34;5087204;28;20081;-52
2023/01/31 10:24:15;;;;;;;9.82;1.90;;;;;;;4.82;72.99;101194.31;5082500;28;20411;-55
2023/01/31 10:26:45;;;;;;;11.98;1.95;;;;;;;4.80;73.33;101199.56;5081040;28;20167;-54
2023/01/31 10:29:35;;;;;;;6.93;1.55;;;;;;;4.78;73.69;101190.91;5088457;28;20101;-51
2023/01/31 10:32:13;;;;;;;12.68;2.10;;;;;;;4.80;73.79;101191.72;5091563;28;20152;-54
2023/01/31 10:34:43;;;;;;;11.48;1.60;;;;;;;4.83;73.87;101185.59;5094621;28;20061;-52
2023/01/31 10:37:13;;;;;;;7.90;1.83;;;;;;;4.84;73.73;101189.91;5075722;28;20068;-51
2023/01/31 10:39:50;;;;;;;11.23;3.35;;;;;;;4.83;74.06;101178.63;5077237;28;20092;-52
2023/01/31 10:42:31;;;;;;;9.75;2.47;;;;;;;4.78;74.41;101175.28;5077974;28;20072;-53
2023/01/31 10:45:20;;;;;;;11.88;2.50;;;;;;;4.75;74.19;101175.38;5079385;28;20076;-55
2023/01/31 10:48:00;;;;;;;15.10;3.08;;;;;;;4.76;74.37;101171.88;5078667;28;20466;-54
2023/01/31 10:50:44;;;;;;;8.30;1.30;;;;;;;4.78;74.60;101164.00;5083715;28;20155;-54
2023/01/31 10:53:30;;;;;;;10.45;2.55;;;;;;;4.82;74.59;101165.63;5092904;28;20083;-54
2023/01/31 10:56:02;;;;;;;13.27;1.70;;;;;;;4.85;74.13;101149.88;5081984;28;20071;-56
2023/01/31 10:58:27;;;;;;;9.85;1.55;;;;;;;4.85;74.14;101145.53;5090027;28;20183;-55
2023/01/31 11:00:53;;;;;;;11.73;2.05;;;;;;;4.82;74.40;101135.19;5097931;28;20167;-56
2023/01/31 11:03:20;;;;;;;11.52;1.80;;;;;;;4.83;74.49;101131.69;5092926;28;20076;-54
2023/01/31 11:05:51;;;;;;;7.45;2.50;;;;;;;4.88;74.49;101124.59;5074382;28;20088;-57
2023/01/31 11:08:39;;;;;;;13.57;1.70;;;;;;;4.92;74.27;101117.53;5089213;28;20089;-54
2023/01/31 11:11:16;;;;;;;10.55;1.80;;;;;;;4.99;73.88;101113.84;5098058;28;20084;-57
2023/01/31 11:14:16;;;;;;;16.65;1.92;;;;;;;5.03;74.11;101101.59;5094394;28;20079;-53
2023/01/31 11:16:42;;;;;;;9.52;1.45;;;;;;;5.06;74.30;101091.06;5086327;28;20141;-50
2023/01/31 11:19:31;;;;;;;8.77;1.98;;;;;;;5.09;74.07;101082.28;5093036;28;20101;-54
2023/01/31 11:21:57;;;;;;;11.93;3.03;;;;;;;5.11;74.23;101070.91;5062490;28;20112;-56
2023/01/31 11:24:26;;;;;;;24.88;5.80;;;;;;;5.13;73.95;101071.72;5096932;28;21415;-57
2023/01/31 11:27:21;;;;;;;11.85;2.33;;;;;;;5.16;74.31;101061.19;5092747;28;20119;-55
2023/01/31 11:29:49;;;;;;;13.88;2.05;;;;;;;5.12;73.84;101043.91;5087987;28;20093;-51
2023/01/31 11:32:22;;;;;;;20.45;2.92;;;;;;;5.14;74.15;101043.91;5091606;28;20073;-56
2023/01/31 11:35:05;;;;;;;14.43;2.63;;;;;;;5.15;73.91;101032.53;5088491;28;20165;-55
2023/01/31 11:37:33;;;;;;;20.50;3.33;;;;;;;5.10;73.86;101030.06;5083302;28;20075;-57
2023/01/31 11:40:25;;;;;;;14.13;3.20;;;;;;;5.08;74.43;101024.03;5091793;28;20450;-54
2023/01/31 11:42:55;;;;;;;;;;;;;;;5.01;74.73;101025.97;5098772;28;20125;-58
2023/01/31 11:45:26;;;;;;;12.60;2.35;;;;;;;5.03;74.20;101020.72;5101840;28;19960;-55
2023/01/31 11:47:54;;;;;;;11.93;3.03;;;;;;;5.06;74.21;101009.34;5089396;28;20152;-54
2023/01/31 11:50:25;;;;;;;16.38;1.65;;;;;;;5.02;74.29;101016.41;5087062;28;20080;-52